Terminal Aerodrome Forecast
Issued by NWS

Home | Current Version | Previous Version | Graphics & Text | Print | Product List | Glossary On
Versions: 1 2 3 4 5 6 7 8 9 10 11 12 13 14 15 16 17 18 19 20 21 22 23 24 25 26
000
FTUS43 KBIS 301125
TAFDIK
TAF
KDIK 301125Z 3012/0112 07006KT P6SM -SHRA BKN100
     FM301400 13012KT P6SM BKN080 OVC120
     FM301700 13012KT P6SM VCSH BKN050
     FM302100 15012KT P6SM VCTS SCT070CB BKN120
     FM010000 12008KT P6SM -SHRA VCTS BKN050 OVC100CB
     FM010600 19005KT P6SM BKN035=

USA.gov is the U.S. government's official web portal to all federal, state and local government web resources and services.